createdAt,value
2022-11-16T00:01:41.644Z,95.40
2022-11-16T00:04:09.731Z,95.34
2022-11-16T00:06:36.128Z,95.40
2022-11-16T00:09:22.348Z,95.39
2022-11-16T00:11:51.306Z,95.42
2022-11-16T00:14:19.564Z,95.48
2022-11-16T00:16:46.020Z,95.47
2022-11-16T00:19:13.065Z,95.40
2022-11-16T00:21:39.675Z,95.42
2022-11-16T00:24:06.556Z,95.37
2022-11-16T00:26:32.942Z,95.39
2022-11-16T00:28:59.402Z,95.34
2022-11-16T00:31:25.780Z,95.33
2022-11-16T00:33:52.509Z,95.40
2022-11-16T00:36:20.354Z,95.35
2022-11-16T00:38:46.874Z,95.35
2022-11-16T00:41:13.603Z,95.32
2022-11-16T00:43:40.043Z,95.30
2022-11-16T00:46:06.431Z,95.35
2022-11-16T00:48:33.164Z,95.41
2022-11-16T00:50:59.757Z,95.30
2022-11-16T00:53:26.534Z,95.28
2022-11-16T00:55:52.908Z,95.31
2022-11-16T01:00:36.345Z,95.39
2022-11-16T01:03:03.626Z,95.43
2022-11-16T01:05:30.578Z,95.46
2022-11-16T01:07:57.188Z,95.42
2022-11-16T01:10:25.435Z,95.55
2022-11-16T01:12:52.740Z,95.62
2022-11-16T01:15:21.507Z,95.62
2022-11-16T01:17:48.253Z,95.74
2022-11-16T01:20:19.428Z,95.90
2022-11-16T01:22:46.239Z,96.02
2022-11-16T01:25:14.407Z,96.18
2022-11-16T01:27:41.808Z,96.35
2022-11-16T01:30:11.528Z,96.56
2022-11-16T01:32:38.057Z,96.73
2022-11-16T01:35:05.602Z,96.75
2022-11-16T01:37:32.346Z,96.88
2022-11-16T01:39:59.149Z,96.93
2022-11-16T01:42:31.377Z,97.02
2022-11-16T01:45:01.455Z,97.16
2022-11-16T01:47:28.897Z,97.28
2022-11-16T01:50:01.710Z,97.41
2022-11-16T01:52:32.479Z,97.64
2022-11-16T01:54:59.747Z,97.84
2022-11-16T01:57:33.333Z,97.86
2022-11-16T02:00:02.087Z,97.98
2022-11-16T02:02:28.698Z,98.08
2022-11-16T02:04:57.016Z,98.04
2022-11-16T02:07:26.481Z,98.04
2022-11-16T02:10:25.387Z,98.10
2022-11-16T02:13:18.134Z,98.14
2022-11-16T02:16:03.737Z,98.17
2022-11-16T02:18:42.868Z,98.24
2022-11-16T02:21:27.448Z,98.26
2022-11-16T02:24:05.162Z,98.26
2022-11-16T02:26:55.779Z,98.29
2022-11-16T02:29:36.435Z,98.29
2022-11-16T02:32:12.354Z,98.25
2022-11-16T02:34:54.059Z,98.29
2022-11-16T02:37:24.179Z,98.29
2022-11-16T02:39:56.360Z,98.25
2022-11-16T02:42:35.044Z,98.26
2022-11-16T02:45:03.859Z,98.29
2022-11-16T02:47:34.318Z,98.28
2022-11-16T02:50:14.114Z,98.23
2022-11-16T02:52:40.717Z,98.28
2022-11-16T02:55:07.816Z,98.26
2022-11-16T02:58:01.070Z,98.29
2022-11-16T03:00:43.962Z,98.26
2022-11-16T03:03:31.412Z,98.21
2022-11-16T03:06:16.907Z,98.24
2022-11-16T03:08:49.587Z,98.23
2022-11-16T03:11:34.892Z,98.20
2022-11-16T03:14:09.468Z,98.16
2022-11-16T03:16:43.519Z,98.15
2022-11-16T03:19:14.343Z,98.17
2022-11-16T03:21:48.254Z,98.16
2022-11-16T03:24:15.504Z,98.11
2022-11-16T03:26:50.671Z,98.08
2022-11-16T03:29:49.307Z,98.06
2022-11-16T03:32:27.421Z,98.10
2022-11-16T03:35:02.923Z,98.10
2022-11-16T03:37:31.222Z,98.15
2022-11-16T03:40:01.018Z,98.14
2022-11-16T03:42:28.243Z,98.18
2022-11-16T03:44:55.739Z,98.17
2022-11-16T03:47:22.170Z,98.22
2022-11-16T03:49:48.578Z,98.20
2022-11-16T03:52:17.147Z,98.21
2022-11-16T03:54:43.815Z,98.23
2022-11-16T03:57:15.514Z,98.20
2022-11-16T03:59:43.266Z,98.24
2022-11-16T04:02:10.495Z,98.25
2022-11-16T04:04:55.658Z,98.20
2022-11-16T04:07:40.691Z,98.23
2022-11-16T04:10:26.427Z,98.27
2022-11-16T04:13:11.819Z,98.23
2022-11-16T04:15:56.770Z,98.29
2022-11-16T04:18:42.214Z,98.22
2022-11-16T04:21:40.657Z,98.25
2022-11-16T04:24:16.999Z,98.27
2022-11-16T04:27:06.842Z,98.29
2022-11-16T04:29:34.451Z,98.33
2022-11-16T04:32:19.536Z,98.38
2022-11-16T04:35:04.799Z,98.40
2022-11-16T04:37:49.337Z,98.43
2022-11-16T04:40:16.771Z,98.43
2022-11-16T04:42:43.370Z,98.45
2022-11-16T04:45:28.662Z,98.39
2022-11-16T04:47:55.109Z,98.39
2022-11-16T04:50:21.747Z,98.39
2022-11-16T04:52:48.174Z,98.44
2022-11-16T04:55:14.792Z,98.42
2022-11-16T04:57:41.272Z,98.44
2022-11-16T05:00:08.539Z,98.45
2022-11-16T05:02:36.575Z,98.41
2022-11-16T05:05:02.951Z,98.41
2022-11-16T05:07:29.730Z,98.41
2022-11-16T05:09:56.156Z,98.33
2022-11-16T05:12:25.090Z,98.21
2022-11-16T05:14:51.794Z,98.03
2022-11-16T05:17:19.376Z,97.89
2022-11-16T05:20:04.460Z,97.86
2022-11-16T05:22:31.151Z,97.84
2022-11-16T05:24:57.946Z,97.90
2022-11-16T05:27:25.540Z,97.89
2022-11-16T05:29:52.385Z,97.90
2022-11-16T05:32:20.042Z,97.91
2022-11-16T05:34:46.956Z,97.95
2022-11-16T05:37:13.841Z,97.98
2022-11-16T05:39:40.328Z,97.95
2022-11-16T05:42:06.980Z,97.94
2022-11-16T05:44:33.961Z,97.95
2022-11-16T05:47:00.525Z,97.91
2022-11-16T05:49:27.556Z,97.98
2022-11-16T05:51:54.067Z,97.95
2022-11-16T05:54:22.242Z,97.97
2022-11-16T05:56:49.544Z,97.94
2022-11-16T05:59:17.757Z,97.95
2022-11-16T06:01:44.358Z,97.86
2022-11-16T06:04:11.225Z,97.80
2022-11-16T06:06:37.752Z,97.81
2022-11-16T06:09:05.157Z,97.78
2022-11-16T06:11:35.728Z,97.73
2022-11-16T06:14:02.976Z,97.77
2022-11-16T06:16:29.572Z,97.88
2022-11-16T06:18:56.168Z,97.65
2022-11-16T06:21:22.692Z,97.74
2022-11-16T06:23:49.151Z,97.73
2022-11-16T06:26:15.593Z,97.62
2022-11-16T06:28:42.142Z,97.42
2022-11-16T06:31:08.569Z,97.14
2022-11-16T06:33:35.123Z,97.10
2022-11-16T06:36:01.689Z,97.13
2022-11-16T06:38:28.383Z,96.76
2022-11-16T06:40:57.008Z,96.49
2022-11-16T06:43:24.690Z,96.25
2022-11-16T06:45:53.286Z,95.08
2022-11-16T06:48:20.341Z,94.18
2022-11-16T06:50:51.820Z,93.99
2022-11-16T06:53:19.091Z,93.69
2022-11-16T06:55:45.606Z,93.63
2022-11-16T06:58:12.067Z,92.95
2022-11-16T07:00:38.568Z,92.89
2022-11-16T07:03:04.935Z,92.74
2022-11-16T07:05:32.309Z,92.19
2022-11-16T07:07:59.096Z,92.46
2022-11-16T07:10:25.919Z,91.37
2022-11-16T07:12:52.449Z,90.98
2022-11-16T07:15:19.602Z,91.66
2022-11-16T07:17:46.367Z,90.70
2022-11-16T07:20:12.803Z,91.40
2022-11-16T07:22:39.148Z,91.52
2022-11-16T07:25:06.138Z,90.37
2022-11-16T07:27:32.569Z,90.93
2022-11-16T07:32:36.099Z,92.53
2022-11-16T07:35:02.507Z,92.21
2022-11-16T07:37:28.941Z,89.83
2022-11-16T07:39:55.329Z,89.35
2022-11-16T07:42:21.663Z,87.33
2022-11-16T07:44:48.061Z,85.92
2022-11-16T07:47:14.437Z,85.84
2022-11-16T07:49:40.798Z,85.12
2022-11-16T07:52:10.645Z,84.87
2022-11-16T07:54:37.473Z,85.31
2022-11-16T07:57:04.269Z,85.34
2022-11-16T07:59:30.635Z,84.90
2022-11-16T08:01:57.065Z,83.01
2022-11-16T08:04:23.836Z,81.89
2022-11-16T08:06:51.674Z,81.85
2022-11-16T08:09:18.265Z,82.75
2022-11-16T08:11:44.637Z,83.48
2022-11-16T08:14:11.918Z,82.87
2022-11-16T08:16:38.270Z,83.05
2022-11-16T08:19:04.668Z,81.50
2022-11-16T08:21:31.046Z,80.51
2022-11-16T08:23:58.868Z,79.58
2022-11-16T08:26:25.558Z,79.34
2022-11-16T08:28:53.620Z,78.95
2022-11-16T08:31:23.934Z,79.47
2022-11-16T08:33:51.975Z,80.04
2022-11-16T08:36:19.042Z,79.87
2022-11-16T08:38:46.906Z,80.13
2022-11-16T08:41:14.066Z,80.36
2022-11-16T08:43:40.947Z,79.93
2022-11-16T08:46:09.329Z,79.58
2022-11-16T08:48:37.215Z,78.56
2022-11-16T08:51:17.572Z,78.64
2022-11-16T08:53:45.235Z,79.31
2022-11-16T08:56:13.691Z,79.80
2022-11-16T08:58:43.449Z,79.21
2022-11-16T09:01:14.606Z,79.02
2022-11-16T09:03:41.865Z,77.00
2022-11-16T09:06:09.615Z,74.35
2022-11-16T09:08:37.844Z,73.64
2022-11-16T09:11:09.907Z,76.14
2022-11-16T09:13:37.378Z,77.37
2022-11-16T09:16:04.676Z,77.79
2022-11-16T09:18:31.606Z,77.89
2022-11-16T09:20:58.446Z,77.55
2022-11-16T09:23:25.730Z,78.45
2022-11-16T09:25:52.833Z,77.32
2022-11-16T09:28:19.587Z,77.41
2022-11-16T09:30:48.463Z,75.60
2022-11-16T09:33:14.849Z,73.77
2022-11-16T09:35:41.709Z,76.28
2022-11-16T09:38:09.926Z,76.13
2022-11-16T09:40:39.617Z,76.92
2022-11-16T09:43:13.049Z,76.82
2022-11-16T09:45:52.708Z,77.18
2022-11-16T09:48:21.707Z,75.78
2022-11-16T09:50:58.056Z,70.88
2022-11-16T09:53:30.436Z,70.46
2022-11-16T09:56:04.059Z,70.26
2022-11-16T09:58:49.632Z,69.23
2022-11-16T10:01:23.667Z,67.02
2022-11-16T10:03:58.541Z,64.71
2022-11-16T10:06:37.029Z,66.34
2022-11-16T10:09:03.993Z,65.50
2022-11-16T10:11:39.468Z,64.93
2022-11-16T10:14:15.085Z,62.12
2022-11-16T10:17:20.441Z,62.26
2022-11-16T10:19:49.756Z,63.75
2022-11-16T10:22:33.201Z,63.35
2022-11-16T10:25:07.128Z,65.23
2022-11-16T10:28:22.323Z,65.56
2022-11-16T10:31:01.103Z,63.31
2022-11-16T10:33:35.752Z,63.66
2022-11-16T10:36:11.263Z,61.97
2022-11-16T10:38:38.065Z,61.46
2022-11-16T10:41:18.416Z,61.68
2022-11-16T10:43:45.599Z,61.85
2022-11-16T10:46:28.856Z,58.87
2022-11-16T10:49:32.897Z,60.43
2022-11-16T10:51:59.373Z,62.75
2022-11-16T10:54:25.709Z,62.87
2022-11-16T10:57:02.355Z,62.63
2022-11-16T10:59:50.015Z,62.72
2022-11-16T11:02:32.583Z,62.99
2022-11-16T11:05:16.615Z,61.62
2022-11-16T11:07:54.056Z,60.67
2022-11-16T11:10:35.680Z,60.02
2022-11-16T11:13:08.950Z,63.14
2022-11-16T11:15:35.905Z,61.00
2022-11-16T11:18:27.030Z,59.19
2022-11-16T11:21:07.639Z,61.22
2022-11-16T11:23:51.285Z,62.28
2022-11-16T11:26:35.866Z,63.53
2022-11-16T11:29:17.071Z,63.68
2022-11-16T11:31:48.931Z,64.18
2022-11-16T11:34:20.730Z,64.18
2022-11-16T11:37:00.732Z,62.68
2022-11-16T11:39:33.298Z,62.79
2022-11-16T11:42:14.812Z,62.64
2022-11-16T11:44:50.405Z,63.50
2022-11-16T11:50:38.818Z,63.96
2022-11-16T11:53:18.684Z,64.19
2022-11-16T11:55:45.073Z,63.92
2022-11-16T11:58:19.097Z,63.93
2022-11-16T12:00:50.761Z,63.29
2022-11-16T12:03:38.812Z,63.03
2022-11-16T12:06:11.408Z,61.66
2022-11-16T12:08:50.191Z,63.20
2022-11-16T12:11:35.338Z,62.27
2022-11-16T12:14:14.694Z,64.17
2022-11-16T12:16:53.005Z,62.87
2022-11-16T12:19:38.365Z,63.47
2022-11-16T12:22:43.449Z,61.87
2022-11-16T12:25:34.717Z,61.36
2022-11-16T12:28:12.924Z,59.91
2022-11-16T12:31:10.224Z,60.93
2022-11-16T12:33:58.125Z,59.19
2022-11-16T12:36:40.196Z,60.54
2022-11-16T12:39:26.246Z,62.27
2022-11-16T12:42:23.503Z,63.80
2022-11-16T12:44:59.472Z,64.68
2022-11-16T12:47:47.110Z,63.21
2022-11-16T12:50:35.153Z,62.45
2022-11-16T12:53:13.418Z,60.62
2022-11-16T12:55:48.791Z,61.46
2022-11-16T12:58:38.577Z,60.65
2022-11-16T13:01:16.820Z,60.54
2022-11-16T13:03:53.654Z,61.54
2022-11-16T13:06:33.379Z,63.31
2022-11-16T13:09:40.655Z,62.43
2022-11-16T13:12:14.145Z,60.75
2022-11-16T13:14:49.908Z,59.84
2022-11-16T13:17:21.688Z,59.80
2022-11-16T13:20:07.060Z,60.97
2022-11-16T13:22:40.200Z,62.57
2022-11-16T13:25:19.749Z,63.19
2022-11-16T13:27:58.313Z,63.68
2022-11-16T13:30:32.800Z,63.69
2022-11-16T13:33:01.460Z,64.12
2022-11-16T13:35:28.398Z,64.18
2022-11-16T13:37:54.916Z,64.08
2022-11-16T13:40:27.174Z,64.23
2022-11-16T13:43:06.724Z,64.54
2022-11-16T13:45:36.983Z,65.09
2022-11-16T13:48:15.998Z,65.46
2022-11-16T13:50:49.500Z,65.63
2022-11-16T13:56:17.581Z,64.70
2022-11-16T13:58:52.589Z,63.65
2022-11-16T14:01:19.237Z,62.99
2022-11-16T14:03:51.591Z,64.00
2022-11-16T14:06:23.830Z,64.48
2022-11-16T14:08:54.064Z,65.16
2022-11-16T14:11:34.916Z,66.22
2022-11-16T14:14:10.277Z,66.28
2022-11-16T14:16:47.449Z,66.48
2022-11-16T14:19:54.987Z,66.64
2022-11-16T14:22:45.010Z,66.56
2022-11-16T14:25:52.242Z,66.90
2022-11-16T14:29:03.573Z,67.33
2022-11-16T14:31:45.175Z,67.41
2022-11-16T14:34:17.339Z,67.60
2022-11-16T14:36:46.513Z,67.94
2022-11-16T14:39:29.180Z,67.92
2022-11-16T14:42:00.496Z,68.39
2022-11-16T14:44:31.458Z,68.43
2022-11-16T14:46:58.100Z,68.59
2022-11-16T14:49:27.322Z,67.97
2022-11-16T14:51:57.164Z,67.74
2022-11-16T14:54:30.050Z,68.03
2022-11-16T14:57:07.766Z,68.29
2022-11-16T14:59:34.236Z,68.30
2022-11-16T15:02:11.918Z,68.39
2022-11-16T15:04:38.808Z,69.04
2022-11-16T15:07:05.911Z,69.04
2022-11-16T15:09:40.678Z,69.44
2022-11-16T15:12:34.097Z,69.63
2022-11-16T15:15:29.242Z,69.57
2022-11-16T15:18:06.325Z,69.98
2022-11-16T15:20:36.241Z,70.24
2022-11-16T15:23:05.366Z,70.12
2022-11-16T15:25:43.732Z,70.25
2022-11-16T15:28:22.609Z,70.16
2022-11-16T15:30:52.647Z,70.41
2022-11-16T15:33:29.662Z,70.68
2022-11-16T15:35:56.530Z,70.59
2022-11-16T15:38:29.048Z,71.18
2022-11-16T15:41:03.257Z,71.34
2022-11-16T15:43:33.062Z,71.56
2022-11-16T15:46:01.109Z,71.96
2022-11-16T15:48:28.353Z,72.29
2022-11-16T15:51:02.978Z,72.62
2022-11-16T15:53:40.293Z,72.74
2022-11-16T15:56:26.918Z,72.80
2022-11-16T15:58:55.744Z,73.43
2022-11-16T16:01:23.326Z,73.77
2022-11-16T16:04:00.862Z,74.43
2022-11-16T16:06:45.586Z,74.61
2022-11-16T16:09:34.140Z,75.09
2022-11-16T16:12:20.668Z,75.14
2022-11-16T16:14:49.169Z,75.66
2022-11-16T16:17:26.865Z,76.15
2022-11-16T16:20:03.301Z,76.22
2022-11-16T16:22:33.520Z,76.56
2022-11-16T16:25:01.676Z,76.88
2022-11-16T16:27:30.255Z,77.01
2022-11-16T16:30:02.596Z,77.49
2022-11-16T16:32:31.273Z,77.27
2022-11-16T16:35:00.132Z,77.46
2022-11-16T16:37:29.241Z,77.79
2022-11-16T16:39:56.002Z,78.07
2022-11-16T16:42:22.635Z,78.34
2022-11-16T16:44:50.000Z,78.48
2022-11-16T16:47:20.512Z,78.48
2022-11-16T16:49:47.758Z,78.98
2022-11-16T16:52:14.454Z,78.54
2022-11-16T16:54:41.493Z,78.75
2022-11-16T16:57:13.679Z,78.82
2022-11-16T16:59:40.259Z,78.94
2022-11-16T17:02:06.891Z,79.32
2022-11-16T17:04:34.358Z,79.04
2022-11-16T17:07:00.762Z,79.27
2022-11-16T17:09:27.271Z,79.36
2022-11-16T17:11:53.709Z,79.26
2022-11-16T17:14:24.635Z,79.27
2022-11-16T17:16:51.632Z,78.86
2022-11-16T17:19:18.145Z,78.77
2022-11-16T17:21:44.514Z,79.09
2022-11-16T17:24:11.640Z,79.22
2022-11-16T17:26:38.318Z,79.49
2022-11-16T17:29:04.786Z,79.47
2022-11-16T17:31:31.190Z,79.55
2022-11-16T17:33:59.806Z,79.77
2022-11-16T17:36:26.177Z,79.95
2022-11-16T17:38:53.717Z,80.25
2022-11-16T17:41:24.077Z,80.52
2022-11-16T17:43:53.119Z,80.82
2022-11-16T17:46:21.950Z,80.89
2022-11-16T17:48:48.967Z,81.28
2022-11-16T17:51:17.833Z,81.38
2022-11-16T17:53:45.816Z,81.30
2022-11-16T18:00:00.700Z,81.74
2022-11-16T18:02:30.727Z,81.86
2022-11-16T18:04:57.305Z,81.91
2022-11-16T18:07:23.791Z,82.07
2022-11-16T18:09:50.245Z,82.05
2022-11-16T18:12:18.359Z,82.17
2022-11-16T18:15:06.398Z,82.49
2022-11-16T18:17:31.140Z,82.71
2022-11-16T18:19:57.502Z,82.71
2022-11-16T18:22:24.219Z,82.97
2022-11-16T18:24:51.067Z,82.92
2022-11-16T18:27:20.440Z,83.29
2022-11-16T18:29:48.139Z,83.11
2022-11-16T18:32:14.465Z,82.88
2022-11-16T18:34:40.821Z,83.01
2022-11-16T18:37:07.164Z,82.97
2022-11-16T18:39:33.682Z,83.08
2022-11-16T18:42:00.361Z,83.02
2022-11-16T18:44:26.935Z,83.09
2022-11-16T18:46:53.365Z,83.34
2022-11-16T18:49:19.883Z,83.53
2022-11-16T18:51:46.399Z,83.34
2022-11-16T18:57:36.084Z,83.40
2022-11-16T19:00:03.235Z,83.72
2022-11-16T19:02:29.570Z,83.57
2022-11-16T19:04:56.155Z,83.68
2022-11-16T19:07:22.677Z,83.64
2022-11-16T19:09:49.148Z,83.41
2022-11-16T19:12:17.827Z,83.46
2022-11-16T19:14:44.171Z,83.34
2022-11-16T19:17:10.547Z,83.30
2022-11-16T19:19:36.996Z,83.16
2022-11-16T19:22:06.003Z,83.08
2022-11-16T19:24:32.682Z,82.97
2022-11-16T19:26:59.606Z,82.89
2022-11-16T19:29:26.248Z,82.72
2022-11-16T19:31:52.646Z,82.70
2022-11-16T19:34:19.116Z,82.79
2022-11-16T19:36:45.529Z,82.55
2022-11-16T19:39:12.096Z,82.46
2022-11-16T19:41:38.504Z,82.32
2022-11-16T19:44:04.973Z,82.24
2022-11-16T19:46:33.121Z,82.03
2022-11-16T19:49:00.166Z,82.04
2022-11-16T19:51:32.158Z,82.04
2022-11-16T19:54:00.430Z,81.99
2022-11-16T19:56:27.485Z,82.08
2022-11-16T19:58:54.031Z,82.07
2022-11-16T20:01:28.080Z,82.02
2022-11-16T20:03:56.756Z,82.12
2022-11-16T20:06:29.078Z,82.13
2022-11-16T20:09:01.066Z,81.90
2022-11-16T20:11:29.359Z,81.91
2022-11-16T20:13:57.833Z,82.04
2022-11-16T20:16:27.403Z,81.75
2022-11-16T20:18:54.673Z,81.55
2022-11-16T20:21:33.241Z,81.51
2022-11-16T20:24:06.063Z,81.53
2022-11-16T20:26:36.337Z,81.61
2022-11-16T20:29:03.449Z,81.31
2022-11-16T20:31:32.129Z,81.18
2022-11-16T20:34:04.187Z,81.18
2022-11-16T20:36:32.619Z,81.03
2022-11-16T20:39:00.824Z,81.16
2022-11-16T20:41:32.386Z,80.97
2022-11-16T20:44:00.979Z,81.11
2022-11-16T20:46:30.339Z,80.94
2022-11-16T20:48:59.252Z,80.92
2022-11-16T20:51:25.763Z,80.69
2022-11-16T20:53:52.462Z,80.58
2022-11-16T20:56:20.184Z,80.94
2022-11-16T20:58:48.294Z,81.01
2022-11-16T21:01:18.572Z,80.89
2022-11-16T21:03:45.326Z,81.03
2022-11-16T21:06:13.183Z,81.09
2022-11-16T21:08:41.053Z,81.17
2022-11-16T21:11:23.193Z,81.29
2022-11-16T21:14:08.374Z,81.17
2022-11-16T21:16:35.171Z,81.30
2022-11-16T21:19:02.892Z,81.37
2022-11-16T21:21:29.960Z,81.55
2022-11-16T21:23:56.394Z,81.73
2022-11-16T21:26:30.688Z,81.78
2022-11-16T21:28:59.607Z,81.67
2022-11-16T21:31:32.015Z,81.41
2022-11-16T21:34:02.009Z,81.45
2022-11-16T21:36:31.628Z,81.44
2022-11-16T21:38:58.442Z,81.48
2022-11-16T21:41:25.997Z,81.49
2022-11-16T21:43:52.642Z,81.52
2022-11-16T21:46:23.223Z,81.58
2022-11-16T21:48:51.101Z,81.66
2022-11-16T21:51:20.857Z,81.69
2022-11-16T21:53:48.053Z,81.67
2022-11-16T21:56:19.414Z,81.73
2022-11-16T21:58:50.336Z,81.55
2022-11-16T22:01:17.042Z,81.93
2022-11-16T22:03:44.616Z,81.78
2022-11-16T22:06:34.036Z,81.88
2022-11-16T22:09:01.184Z,82.09
2022-11-16T22:11:28.001Z,82.34
2022-11-16T22:13:54.381Z,82.86
2022-11-16T22:16:23.220Z,83.38
2022-11-16T22:18:50.154Z,83.73
2022-11-16T22:21:18.316Z,84.25
2022-11-16T22:23:44.814Z,84.74
2022-11-16T22:26:12.809Z,85.29
2022-11-16T22:28:39.552Z,85.44
2022-11-16T22:31:14.557Z,86.05
2022-11-16T22:33:41.690Z,86.43
2022-11-16T22:36:10.361Z,86.35
2022-11-16T22:38:37.015Z,86.96
2022-11-16T22:41:03.560Z,86.96
2022-11-16T22:43:31.285Z,87.31
2022-11-16T22:45:59.018Z,88.02
2022-11-16T22:48:39.530Z,88.57
2022-11-16T22:51:11.973Z,88.90
2022-11-16T22:53:38.682Z,89.42
2022-11-16T22:56:07.475Z,89.86
2022-11-16T22:58:34.906Z,90.23
2022-11-16T23:01:04.402Z,90.21
2022-11-16T23:03:31.827Z,90.55
2022-11-16T23:05:58.503Z,90.40
2022-11-16T23:08:25.128Z,90.76
2022-11-16T23:11:21.409Z,90.76
2022-11-16T23:14:06.954Z,91.13
2022-11-16T23:16:33.595Z,91.56
2022-11-16T23:19:00.415Z,91.41
2022-11-16T23:21:45.630Z,91.51
2022-11-16T23:24:33.167Z,91.76
2022-11-16T23:27:21.847Z,91.70
2022-11-16T23:29:49.652Z,91.99
2022-11-16T23:32:18.253Z,91.79
2022-11-16T23:34:45.584Z,91.78
2022-11-16T23:37:12.196Z,91.69
2022-11-16T23:39:38.555Z,91.61
2022-11-16T23:42:23.579Z,91.55
2022-11-16T23:44:50.114Z,91.59
2022-11-16T23:47:16.730Z,91.85
2022-11-16T23:49:43.188Z,92.04
2022-11-16T23:52:09.963Z,91.74
2022-11-16T23:54:36.353Z,91.80
2022-11-16T23:57:03.246Z,91.81
2022-11-16T23:59:29.614Z,91.49
